sensor_id;sensor_type;location;lat;lon;timestamp;pressure;altitude;pressure_sealevel;temperature;humidity
59487;BME280;45298;54.918;73.504;2023-02-26T00:01:50;101367.84;;;-18.34;72.23
59487;BME280;45298;54.918;73.504;2023-02-26T00:04:20;101446.28;;;-17.78;72.43
59487;BME280;45298;54.918;73.504;2023-02-26T00:06:48;101466.84;;;-17.63;71.47
59487;BME280;45298;54.918;73.504;2023-02-26T00:09:24;101482.28;;;-17.59;71.94
59487;BME280;45298;54.918;73.504;2023-02-26T00:11:53;101447.53;;;-17.72;71.55
59487;BME280;45298;54.918;73.504;2023-02-26T00:14:23;101495.09;;;-17.46;71.46
59487;BME280;45298;54.918;73.504;2023-02-26T00:19:33;101439.22;;;-17.82;71.20
59487;BME280;45298;54.918;73.504;2023-02-26T00:22:02;101502.47;;;-17.49;71.85
59487;BME280;45298;54.918;73.504;2023-02-26T00:24:31;101487.22;;;-17.61;72.13
59487;BME280;45298;54.918;73.504;2023-02-26T00:27:00;101492.28;;;-17.61;72.07
59487;BME280;45298;54.918;73.504;2023-02-26T00:29:29;101465.38;;;-17.71;71.43
59487;BME280;45298;54.918;73.504;2023-02-26T00:31:58;101476.50;;;-17.69;71.79
59487;BME280;45298;54.918;73.504;2023-02-26T00:34:27;101471.44;;;-17.69;71.39
59487;BME280;45298;54.918;73.504;2023-02-26T00:37:16;101473.75;;;-17.72;71.99
59487;BME280;45298;54.918;73.504;2023-02-26T00:40:02;101452.25;;;-17.77;71.91
59487;BME280;45298;54.918;73.504;2023-02-26T00:42:36;101512.50;;;-17.51;71.92
59487;BME280;45298;54.918;73.504;2023-02-26T00:45:05;101477.81;;;-17.74;71.47
59487;BME280;45298;54.918;73.504;2023-02-26T00:48:14;101497.94;;;-17.65;71.48
59487;BME280;45298;54.918;73.504;2023-02-26T00:50:58;101517.88;;;-17.58;71.32
59487;BME280;45298;54.918;73.504;2023-02-26T00:53:43;101487.78;;;-17.65;71.03
59487;BME280;45298;54.918;73.504;2023-02-26T00:56:15;101483.13;;;-17.71;70.95
59487;BME280;45298;54.918;73.504;2023-02-26T00:58:43;101522.09;;;-17.58;71.08
59487;BME280;45298;54.918;73.504;2023-02-26T01:01:12;101486.59;;;-17.81;70.83
59487;BME280;45298;54.918;73.504;2023-02-26T01:03:41;101490.03;;;-17.80;71.06
59487;BME280;45298;54.918;73.504;2023-02-26T01:06:12;101498.00;;;-17.75;70.75
59487;BME280;45298;54.918;73.504;2023-02-26T01:09:09;101517.06;;;-17.69;71.11
59487;BME280;45298;54.918;73.504;2023-02-26T01:11:39;101497.84;;;-17.89;72.09
59487;BME280;45298;54.918;73.504;2023-02-26T01:14:08;101518.59;;;-17.71;72.14
59487;BME280;45298;54.918;73.504;2023-02-26T01:22:09;101535.66;;;-17.80;71.84
59487;BME280;45298;54.918;73.504;2023-02-26T01:24:40;101500.91;;;-17.93;71.81
59487;BME280;45298;54.918;73.504;2023-02-26T01:27:10;101422.94;;;-18.42;71.90
59487;BME280;45298;54.918;73.504;2023-02-26T01:29:39;101538.44;;;-17.77;72.02
59487;BME280;45298;54.918;73.504;2023-02-26T01:32:24;101506.97;;;-17.91;71.32
59487;BME280;45298;54.918;73.504;2023-02-26T01:35:04;101532.38;;;-17.79;72.09
59487;BME280;45298;54.918;73.504;2023-02-26T01:38:19;101502.78;;;-17.90;71.71
59487;BME280;45298;54.918;73.504;2023-02-26T01:41:35;101519.78;;;-17.78;72.46
59487;BME280;45298;54.918;73.504;2023-02-26T01:43:39;101530.41;;;-17.71;71.93
59487;BME280;45298;54.918;73.504;2023-02-26T01:46:24;101551.44;;;-17.72;71.90
59487;BME280;45298;54.918;73.504;2023-02-26T01:48:56;101538.63;;;-17.86;71.45
59487;BME280;45298;54.918;73.504;2023-02-26T01:54:27;101527.16;;;-17.81;71.96
59487;BME280;45298;54.918;73.504;2023-02-26T01:57:09;101508.22;;;-17.86;71.70
59487;BME280;45298;54.918;73.504;2023-02-26T01:59:42;101526.78;;;-17.75;71.60
59487;BME280;45298;54.918;73.504;2023-02-26T02:02:15;101505.53;;;-17.87;71.76
59487;BME280;45298;54.918;73.504;2023-02-26T02:04:45;101519.94;;;-17.76;71.47
59487;BME280;45298;54.918;73.504;2023-02-26T02:07:16;101532.00;;;-17.61;71.85
59487;BME280;45298;54.918;73.504;2023-02-26T02:09:45;101525.69;;;-17.67;72.27
59487;BME280;45298;54.918;73.504;2023-02-26T02:20:41;101560.63;;;-17.28;72.32
59487;BME280;45298;54.918;73.504;2023-02-26T02:31:34;101561.78;;;-17.13;71.83
59487;BME280;45298;54.918;73.504;2023-02-26T02:34:18;101565.53;;;-17.08;71.51
59487;BME280;45298;54.918;73.504;2023-02-26T02:37:04;101525.59;;;-17.22;72.17
59487;BME280;45298;54.918;73.504;2023-02-26T02:39:59;101507.06;;;-17.21;71.44
59487;BME280;45298;54.918;73.504;2023-02-26T02:42:38;101527.19;;;-17.00;71.63
59487;BME280;45298;54.918;73.504;2023-02-26T02:45:27;101557.81;;;-16.74;71.78
59487;BME280;45298;54.918;73.504;2023-02-26T02:48:03;101538.84;;;-16.79;72.30
59487;BME280;45298;54.918;73.504;2023-02-26T02:50:37;101536.88;;;-16.71;71.28
59487;BME280;45298;54.918;73.504;2023-02-26T02:53:16;101566.22;;;-16.51;71.03
59487;BME280;45298;54.918;73.504;2023-02-26T02:55:58;101534.09;;;-16.62;70.86
59487;BME280;45298;54.918;73.504;2023-02-26T02:58:31;101572.38;;;-16.35;71.86
59487;BME280;45298;54.918;73.504;2023-02-26T03:01:05;101577.16;;;-16.28;71.47
59487;BME280;45298;54.918;73.504;2023-02-26T03:06:09;101549.19;;;-16.28;71.30
59487;BME280;45298;54.918;73.504;2023-02-26T03:08:40;101474.72;;;-16.64;71.98
59487;BME280;45298;54.918;73.504;2023-02-26T03:11:09;101587.28;;;-15.92;71.35
59487;BME280;45298;54.918;73.504;2023-02-26T03:13:39;101570.34;;;-15.92;72.17
59487;BME280;45298;54.918;73.504;2023-02-26T03:19:43;101589.47;;;-15.60;71.68
59487;BME280;45298;54.918;73.504;2023-02-26T03:25:20;101555.19;;;-15.65;71.18
59487;BME280;45298;54.918;73.504;2023-02-26T03:31:01;101582.50;;;-15.37;71.54
59487;BME280;45298;54.918;73.504;2023-02-26T03:39:15;101557.22;;;-15.22;70.64
59487;BME280;45298;54.918;73.504;2023-02-26T03:44:25;101593.44;;;-14.87;71.05
59487;BME280;45298;54.918;73.504;2023-02-26T03:47:09;101496.63;;;-15.28;71.03
59487;BME280;45298;54.918;73.504;2023-02-26T03:49:47;101566.69;;;-14.81;70.52
59487;BME280;45298;54.918;73.504;2023-02-26T03:52:20;101584.44;;;-14.69;71.20
59487;BME280;45298;54.918;73.504;2023-02-26T03:55:27;101575.28;;;-14.65;70.45
59487;BME280;45298;54.918;73.504;2023-02-26T03:58:17;101578.25;;;-14.59;70.66
59487;BME280;45298;54.918;73.504;2023-02-26T04:01:11;101594.94;;;-14.37;70.54
59487;BME280;45298;54.918;73.504;2023-02-26T04:04:03;101597.75;;;-14.19;71.64
59487;BME280;45298;54.918;73.504;2023-02-26T04:06:33;101574.53;;;-14.24;71.21
59487;BME280;45298;54.918;73.504;2023-02-26T04:09:04;101576.97;;;-14.12;71.17
59487;BME280;45298;54.918;73.504;2023-02-26T04:11:37;101595.19;;;-13.92;70.83
59487;BME280;45298;54.918;73.504;2023-02-26T04:14:07;101562.41;;;-14.00;70.71
59487;BME280;45298;54.918;73.504;2023-02-26T04:16:40;101582.09;;;-13.84;71.11
59487;BME280;45298;54.918;73.504;2023-02-26T04:19:09;101619.44;;;-13.57;70.63
59487;BME280;45298;54.918;73.504;2023-02-26T04:21:37;101573.13;;;-13.63;71.28
59487;BME280;45298;54.918;73.504;2023-02-26T04:24:07;101563.88;;;-13.61;70.99
59487;BME280;45298;54.918;73.504;2023-02-26T04:26:35;101591.13;;;-13.32;70.89
59487;BME280;45298;54.918;73.504;2023-02-26T04:29:06;101587.44;;;-13.22;70.73
59487;BME280;45298;54.918;73.504;2023-02-26T04:31:35;101579.78;;;-13.22;71.39
59487;BME280;45298;54.918;73.504;2023-02-26T04:34:04;101576.03;;;-13.14;71.35
59487;BME280;45298;54.918;73.504;2023-02-26T04:36:33;101574.09;;;-13.03;70.66
59487;BME280;45298;54.918;73.504;2023-02-26T04:39:02;101604.50;;;-12.78;71.13
59487;BME280;45298;54.918;73.504;2023-02-26T04:41:31;101579.41;;;-12.85;71.43
59487;BME280;45298;54.918;73.504;2023-02-26T04:44:01;101566.91;;;-12.80;70.64
59487;BME280;45298;54.918;73.504;2023-02-26T04:46:32;101593.16;;;-12.53;70.60
59487;BME280;45298;54.918;73.504;2023-02-26T04:49:01;101603.19;;;-12.26;71.60
59487;BME280;45298;54.918;73.504;2023-02-26T04:51:30;101595.81;;;-12.20;71.59
59487;BME280;45298;54.918;73.504;2023-02-26T04:53:58;101610.53;;;-12.01;70.94
59487;BME280;45298;54.918;73.504;2023-02-26T04:56:27;101564.84;;;-12.09;71.05
59487;BME280;45298;54.918;73.504;2023-02-26T04:58:56;101581.25;;;-11.89;70.95
59487;BME280;45298;54.918;73.504;2023-02-26T05:01:28;101531.13;;;-12.02;70.47
59487;BME280;45298;54.918;73.504;2023-02-26T05:03:58;101565.38;;;-11.67;71.00
59487;BME280;45298;54.918;73.504;2023-02-26T05:06:29;101577.53;;;-11.46;69.78
59487;BME280;45298;54.918;73.504;2023-02-26T05:08:58;101574.03;;;-11.32;70.69
59487;BME280;45298;54.918;73.504;2023-02-26T05:11:27;101579.03;;;-11.17;70.35
59487;BME280;45298;54.918;73.504;2023-02-26T05:13:56;101592.28;;;-10.91;70.53
59487;BME280;45298;54.918;73.504;2023-02-26T05:16:25;101519.03;;;-11.22;70.45
59487;BME280;45298;54.918;73.504;2023-02-26T05:18:56;101580.50;;;-10.71;69.69
59487;BME280;45298;54.918;73.504;2023-02-26T05:21:26;101536.13;;;-10.86;69.83
59487;BME280;45298;54.918;73.504;2023-02-26T05:23:54;101586.78;;;-10.46;69.67
59487;BME280;45298;54.918;73.504;2023-02-26T05:26:23;101576.69;;;-10.43;71.10
59487;BME280;45298;54.918;73.504;2023-02-26T05:28:52;101596.47;;;-10.22;69.94
59487;BME280;45298;54.918;73.504;2023-02-26T05:31:21;101600.13;;;-10.17;70.61
59487;BME280;45298;54.918;73.504;2023-02-26T05:33:50;101575.78;;;-10.25;70.73
59487;BME280;45298;54.918;73.504;2023-02-26T05:36:19;101525.09;;;-10.49;69.93
59487;BME280;45298;54.918;73.504;2023-02-26T05:38:48;101603.41;;;-10.02;70.42
59487;BME280;45298;54.918;73.504;2023-02-26T05:41:17;101598.19;;;-9.85;70.62
59487;BME280;45298;54.918;73.504;2023-02-26T05:43:45;101590.16;;;-9.73;69.84
59487;BME280;45298;54.918;73.504;2023-02-26T05:46:14;101577.31;;;-9.73;69.29
59487;BME280;45298;54.918;73.504;2023-02-26T05:48:43;101599.28;;;-9.42;69.89
59487;BME280;45298;54.918;73.504;2023-02-26T05:51:12;101592.91;;;-9.31;69.69
59487;BME280;45298;54.918;73.504;2023-02-26T05:53:41;101600.56;;;-9.32;69.18
59487;BME280;45298;54.918;73.504;2023-02-26T05:56:10;101578.63;;;-9.44;68.73
59487;BME280;45298;54.918;73.504;2023-02-26T05:58:39;101578.25;;;-9.33;69.22
59487;BME280;45298;54.918;73.504;2023-02-26T06:01:08;101575.19;;;-9.24;69.06
59487;BME280;45298;54.918;73.504;2023-02-26T06:03:37;101586.75;;;-9.15;68.76
59487;BME280;45298;54.918;73.504;2023-02-26T06:06:13;101590.59;;;-9.05;69.08
59487;BME280;45298;54.918;73.504;2023-02-26T06:08:45;101585.19;;;-9.11;68.27
59487;BME280;45298;54.918;73.504;2023-02-26T06:11:14;101580.91;;;-9.11;69.34
59487;BME280;45298;54.918;73.504;2023-02-26T06:13:43;101572.94;;;-8.97;68.78
59487;BME280;45298;54.918;73.504;2023-02-26T06:16:12;101567.06;;;-8.73;69.41
59487;BME280;45298;54.918;73.504;2023-02-26T06:18:40;101511.00;;;-9.02;68.49
59487;BME280;45298;54.918;73.504;2023-02-26T06:21:09;101558.78;;;-8.66;68.42
59487;BME280;45298;54.918;73.504;2023-02-26T06:23:38;101583.34;;;-8.52;68.41
59487;BME280;45298;54.918;73.504;2023-02-26T06:26:07;101588.19;;;-8.38;68.04
59487;BME280;45298;54.918;73.504;2023-02-26T06:28:36;101574.50;;;-8.37;68.86
59487;BME280;45298;54.918;73.504;2023-02-26T06:31:05;101577.72;;;-8.20;68.62
59487;BME280;45298;54.918;73.504;2023-02-26T06:33:33;101561.03;;;-8.30;67.71
59487;BME280;45298;54.918;73.504;2023-02-26T06:36:03;101569.38;;;-8.14;67.80
59487;BME280;45298;54.918;73.504;2023-02-26T06:38:32;101498.31;;;-8.32;68.60
59487;BME280;45298;54.918;73.504;2023-02-26T06:41:00;101591.47;;;-7.74;68.20
59487;BME280;45298;54.918;73.504;2023-02-26T06:43:29;101560.13;;;-7.86;67.72
59487;BME280;45298;54.918;73.504;2023-02-26T06:45:58;101589.56;;;-7.57;68.23
59487;BME280;45298;54.918;73.504;2023-02-26T06:48:27;101502.47;;;-7.90;68.45
59487;BME280;45298;54.918;73.504;2023-02-26T06:50:56;101566.53;;;-7.52;68.77
59487;BME280;45298;54.918;73.504;2023-02-26T06:53:25;101570.59;;;-7.35;68.21
59487;BME280;45298;54.918;73.504;2023-02-26T06:55:54;101574.56;;;-7.20;67.11
59487;BME280;45298;54.918;73.504;2023-02-26T06:58:25;101567.13;;;-7.11;67.74
59487;BME280;45298;54.918;73.504;2023-02-26T07:00:53;101562.44;;;-6.97;67.69
59487;BME280;45298;54.918;73.504;2023-02-26T07:03:22;101570.88;;;-6.77;66.57
59487;BME280;45298;54.918;73.504;2023-02-26T07:05:51;101593.47;;;-6.44;66.70
59487;BME280;45298;54.918;73.504;2023-02-26T07:08:20;101557.66;;;-6.60;66.55
59487;BME280;45298;54.918;73.504;2023-02-26T07:10:49;101595.09;;;-6.47;67.08
59487;BME280;45298;54.918;73.504;2023-02-26T07:13:21;101565.22;;;-6.65;66.61
59487;BME280;45298;54.918;73.504;2023-02-26T07:15:50;101596.56;;;-6.54;67.75
59487;BME280;45298;54.918;73.504;2023-02-26T07:18:19;101567.16;;;-6.59;67.20
59487;BME280;45298;54.918;73.504;2023-02-26T07:20:48;101567.22;;;-6.56;67.27
59487;BME280;45298;54.918;73.504;2023-02-26T07:23:17;101552.31;;;-6.65;67.35
59487;BME280;45298;54.918;73.504;2023-02-26T07:25:48;101570.75;;;-6.54;68.46
59487;BME280;45298;54.918;73.504;2023-02-26T07:28:17;101551.09;;;-6.50;68.63
59487;BME280;45298;54.918;73.504;2023-02-26T07:30:46;101573.75;;;-6.42;67.59
59487;BME280;45298;54.918;73.504;2023-02-26T07:33:15;101558.28;;;-6.68;69.08
59487;BME280;45298;54.918;73.504;2023-02-26T07:35:43;101539.41;;;-6.65;68.90
59487;BME280;45298;54.918;73.504;2023-02-26T07:38:12;101558.16;;;-6.45;69.54
59487;BME280;45298;54.918;73.504;2023-02-26T07:40:41;101567.91;;;-6.36;69.14
59487;BME280;45298;54.918;73.504;2023-02-26T07:43:10;101493.47;;;-6.77;68.37
59487;BME280;45298;54.918;73.504;2023-02-26T07:45:39;101554.31;;;-6.56;68.81
59487;BME280;45298;54.918;73.504;2023-02-26T07:48:07;101486.31;;;-7.11;68.96
59487;BME280;45298;54.918;73.504;2023-02-26T07:50:38;101587.19;;;-6.78;69.31
59487;BME280;45298;54.918;73.504;2023-02-26T07:53:07;101575.56;;;-6.91;70.17
59487;BME280;45298;54.918;73.504;2023-02-26T07:55:36;101547.94;;;-6.93;70.21
59487;BME280;45298;54.918;73.504;2023-02-26T07:58:05;101578.97;;;-6.66;70.11
59487;BME280;45298;54.918;73.504;2023-02-26T08:00:34;101555.94;;;-6.86;68.46
59487;BME280;45298;54.918;73.504;2023-02-26T08:03:03;101551.06;;;-6.78;68.90
59487;BME280;45298;54.918;73.504;2023-02-26T08:05:31;101548.16;;;-6.61;68.44
59487;BME280;45298;54.918;73.504;2023-02-26T08:08:00;101568.97;;;-6.29;68.18
59487;BME280;45298;54.918;73.504;2023-02-26T08:10:30;101558.06;;;-5.90;67.28
59487;BME280;45298;54.918;73.504;2023-02-26T08:12:59;101569.78;;;-5.72;66.80
59487;BME280;45298;54.918;73.504;2023-02-26T08:15:28;101529.25;;;-5.73;67.05
59487;BME280;45298;54.918;73.504;2023-02-26T08:17:57;101544.84;;;-5.70;66.22
59487;BME280;45298;54.918;73.504;2023-02-26T08:20:25;101480.56;;;-6.20;66.12
59487;BME280;45298;54.918;73.504;2023-02-26T08:22:54;101539.34;;;-5.83;66.61
59487;BME280;45298;54.918;73.504;2023-02-26T08:25:23;101540.44;;;-5.74;65.26
59487;BME280;45298;54.918;73.504;2023-02-26T08:27:52;101559.94;;;-5.55;65.62
59487;BME280;45298;54.918;73.504;2023-02-26T08:30:21;101480.94;;;-6.08;64.99
59487;BME280;45298;54.918;73.504;2023-02-26T08:32:50;101558.28;;;-5.53;65.33
59487;BME280;45298;54.918;73.504;2023-02-26T08:35:19;101514.78;;;-5.36;64.12
59487;BME280;45298;54.918;73.504;2023-02-26T08:37:47;101524.19;;;-5.06;64.04
59487;BME280;45298;54.918;73.504;2023-02-26T08:40:17;101505.34;;;-5.02;63.20
59487;BME280;45298;54.918;73.504;2023-02-26T08:42:46;101551.78;;;-4.73;62.19
59487;BME280;45298;54.918;73.504;2023-02-26T08:45:15;101527.97;;;-4.93;61.17
59487;BME280;45298;54.918;73.504;2023-02-26T08:47:44;101545.94;;;-4.64;61.76
59487;BME280;45298;54.918;73.504;2023-02-26T08:50:24;101544.47;;;-4.88;60.42
59487;BME280;45298;54.918;73.504;2023-02-26T08:52:53;101552.69;;;-4.71;60.99
59487;BME280;45298;54.918;73.504;2023-02-26T08:55:22;101530.06;;;-4.78;60.94
59487;BME280;45298;54.918;73.504;2023-02-26T08:57:51;101553.91;;;-4.90;60.13
59487;BME280;45298;54.918;73.504;2023-02-26T09:00:20;101577.28;;;-5.21;60.61
59487;BME280;45298;54.918;73.504;2023-02-26T09:02:50;101551.06;;;-5.65;61.20
59487;BME280;45298;54.918;73.504;2023-02-26T09:05:19;101562.72;;;-5.78;61.83
59487;BME280;45298;54.918;73.504;2023-02-26T09:07:49;101508.84;;;-6.25;60.64
59487;BME280;45298;54.918;73.504;2023-02-26T09:10:18;101576.28;;;-5.85;60.69
59487;BME280;45298;54.918;73.504;2023-02-26T09:12:47;101578.66;;;-5.93;60.89
59487;BME280;45298;54.918;73.504;2023-02-26T09:15:16;101541.34;;;-6.32;61.51
59487;BME280;45298;54.918;73.504;2023-02-26T09:17:46;101559.09;;;-6.14;61.68
59487;BME280;45298;54.918;73.504;2023-02-26T09:20:16;101580.06;;;-6.04;61.13
59487;BME280;45298;54.918;73.504;2023-02-26T09:22:45;101549.34;;;-6.24;61.69
59487;BME280;45298;54.918;73.504;2023-02-26T09:25:14;101551.03;;;-6.25;61.10
59487;BME280;45298;54.918;73.504;2023-02-26T09:27:43;101540.00;;;-6.46;60.76
59487;BME280;45298;54.918;73.504;2023-02-26T09:30:12;101574.69;;;-6.40;61.78
59487;BME280;45298;54.918;73.504;2023-02-26T09:32:44;101564.75;;;-6.53;61.46
59487;BME280;45298;54.918;73.504;2023-02-26T09:35:13;101570.50;;;-6.34;62.05
59487;BME280;45298;54.918;73.504;2023-02-26T09:37:42;101579.09;;;-6.35;61.16
59487;BME280;45298;54.918;73.504;2023-02-26T09:40:25;101574.34;;;-6.23;61.79
59487;BME280;45298;54.918;73.504;2023-02-26T09:43:13;101593.72;;;-6.09;61.75
59487;BME280;45298;54.918;73.504;2023-02-26T09:45:47;101573.53;;;-6.20;60.59
59487;BME280;45298;54.918;73.504;2023-02-26T09:48:19;101552.88;;;-6.48;61.90
59487;BME280;45298;54.918;73.504;2023-02-26T09:50:55;101552.50;;;-6.60;61.17
59487;BME280;45298;54.918;73.504;2023-02-26T09:53:34;101601.25;;;-6.42;61.03
59487;BME280;45298;54.918;73.504;2023-02-26T09:56:16;101593.31;;;-6.48;61.76
59487;BME280;45298;54.918;73.504;2023-02-26T09:58:46;101588.53;;;-6.63;61.62
59487;BME280;45298;54.918;73.504;2023-02-26T10:12:28;101603.13;;;-6.64;62.55
59487;BME280;45298;54.918;73.504;2023-02-26T10:15:19;101601.56;;;-6.59;62.99
59487;BME280;45298;54.918;73.504;2023-02-26T10:18:05;101612.88;;;-6.55;62.60
59487;BME280;45298;54.918;73.504;2023-02-26T10:23:40;101572.50;;;-6.53;62.35
59487;BME280;45298;54.918;73.504;2023-02-26T10:26:34;101594.19;;;-6.48;62.24
59487;BME280;45298;54.918;73.504;2023-02-26T10:30:06;101598.91;;;-6.34;62.60
59487;BME280;45298;54.918;73.504;2023-02-26T10:35:13;101555.91;;;-6.61;62.69
59487;BME280;45298;54.918;73.504;2023-02-26T10:38:01;101566.97;;;-6.64;62.08
59487;BME280;45298;54.918;73.504;2023-02-26T10:40:41;101604.41;;;-6.51;62.94
59487;BME280;45298;54.918;73.504;2023-02-26T10:43:32;101614.00;;;-6.73;62.60
59487;BME280;45298;54.918;73.504;2023-02-26T10:47:03;101618.75;;;-6.85;62.90
59487;BME280;45298;54.918;73.504;2023-02-26T10:52:09;101603.94;;;-7.15;63.06
59487;BME280;45298;54.918;73.504;2023-02-26T10:54:46;101594.97;;;-7.26;64.09
59487;BME280;45298;54.918;73.504;2023-02-26T10:57:30;101590.19;;;-7.40;63.99
59487;BME280;45298;54.918;73.504;2023-02-26T11:00:05;101612.59;;;-7.37;64.21
59487;BME280;45298;54.918;73.504;2023-02-26T11:05:08;101617.84;;;-7.36;63.70
59487;BME280;45298;54.918;73.504;2023-02-26T11:07:42;101599.28;;;-7.50;63.51
59487;BME280;45298;54.918;73.504;2023-02-26T11:10:18;101617.47;;;-7.45;64.39
59487;BME280;45298;54.918;73.504;2023-02-26T11:12:47;101627.09;;;-7.41;63.77
59487;BME280;45298;54.918;73.504;2023-02-26T11:15:19;101618.31;;;-7.46;64.26
59487;BME280;45298;54.918;73.504;2023-02-26T11:17:53;101606.78;;;-7.56;63.85
59487;BME280;45298;54.918;73.504;2023-02-26T11:20:36;101619.91;;;-7.50;64.38
59487;BME280;45298;54.918;73.504;2023-02-26T11:23:11;101601.47;;;-7.61;63.97
59487;BME280;45298;54.918;73.504;2023-02-26T11:25:40;101599.88;;;-7.57;64.97
59487;BME280;45298;54.918;73.504;2023-02-26T11:28:29;101617.97;;;-7.55;64.94
59487;BME280;45298;54.918;73.504;2023-02-26T11:31:01;101617.84;;;-7.59;64.59
59487;BME280;45298;54.918;73.504;2023-02-26T11:33:36;101581.38;;;-7.92;64.74
59487;BME280;45298;54.918;73.504;2023-02-26T11:36:13;101619.53;;;-7.59;64.38
59487;BME280;45298;54.918;73.504;2023-02-26T11:38:46;101589.75;;;-7.75;64.98
59487;BME280;45298;54.918;73.504;2023-02-26T11:41:19;101618.38;;;-7.67;65.07
59487;BME280;45298;54.918;73.504;2023-02-26T11:46:56;101591.16;;;-7.83;65.18
59487;BME280;45298;54.918;73.504;2023-02-26T11:49:27;101597.13;;;-7.84;65.67
59487;BME280;45298;54.918;73.504;2023-02-26T11:55:02;101537.88;;;-8.30;65.68
59487;BME280;45298;54.918;73.504;2023-02-26T11:57:32;101607.91;;;-7.95;65.30
59487;BME280;45298;54.918;73.504;2023-02-26T12:00:28;101610.34;;;-7.98;65.97
59487;BME280;45298;54.918;73.504;2023-02-26T12:03:24;101627.63;;;-7.95;65.92
59487;BME280;45298;54.918;73.504;2023-02-26T12:05:57;101596.25;;;-8.08;65.71
59487;BME280;45298;54.918;73.504;2023-02-26T12:08:34;101631.13;;;-7.93;66.04
59487;BME280;45298;54.918;73.504;2023-02-26T12:16:24;101638.03;;;-7.92;67.01
59487;BME280;45298;54.918;73.504;2023-02-26T12:24:37;101621.09;;;-8.08;67.35
59487;BME280;45298;54.918;73.504;2023-02-26T12:30:45;101634.41;;;-7.97;68.51
59487;BME280;45298;54.918;73.504;2023-02-26T12:53:23;101629.72;;;-8.08;69.40
59487;BME280;45298;54.918;73.504;2023-02-26T12:59:16;101665.59;;;-7.90;69.65
59487;BME280;45298;54.918;73.504;2023-02-26T13:13:31;101676.34;;;-7.79;71.39
59487;BME280;45298;54.918;73.504;2023-02-26T13:16:27;101676.28;;;-7.80;71.24
59487;BME280;45298;54.918;73.504;2023-02-26T13:19:08;101675.47;;;-7.79;71.60
59487;BME280;45298;54.918;73.504;2023-02-26T13:21:47;101651.69;;;-7.95;71.38
59487;BME280;45298;54.918;73.504;2023-02-26T13:26:52;101677.34;;;-7.75;71.67
59487;BME280;45298;54.918;73.504;2023-02-26T13:29:36;101680.63;;;-7.79;72.18
59487;BME280;45298;54.918;73.504;2023-02-26T13:32:20;101664.78;;;-7.89;71.55
59487;BME280;45298;54.918;73.504;2023-02-26T13:34:57;101690.31;;;-7.72;72.18
59487;BME280;45298;54.918;73.504;2023-02-26T13:37:36;101662.09;;;-7.92;72.52
59487;BME280;45298;54.918;73.504;2023-02-26T13:52:30;101734.56;;;-7.61;72.78
59487;BME280;45298;54.918;73.504;2023-02-26T13:55:01;101713.00;;;-7.63;72.92
59487;BME280;45298;54.918;73.504;2023-02-26T13:57:42;101707.66;;;-7.68;72.45
59487;BME280;45298;54.918;73.504;2023-02-26T14:00:25;101738.25;;;-7.54;73.22
59487;BME280;45298;54.918;73.504;2023-02-26T14:02:57;101704.97;;;-7.71;73.60
59487;BME280;45298;54.918;73.504;2023-02-26T14:05:52;101725.97;;;-7.62;73.97
59487;BME280;45298;54.918;73.504;2023-02-26T14:08:26;101739.28;;;-7.51;73.22
59487;BME280;45298;54.918;73.504;2023-02-26T14:11:02;101731.28;;;-7.57;73.83
59487;BME280;45298;54.918;73.504;2023-02-26T14:13:37;101654.81;;;-8.02;73.94
59487;BME280;45298;54.918;73.504;2023-02-26T14:16:21;101725.31;;;-7.56;74.44
59487;BME280;45298;54.918;73.504;2023-02-26T14:18:52;101703.41;;;-7.67;74.20
59487;BME280;45298;54.918;73.504;2023-02-26T14:21:33;101750.66;;;-7.46;73.98
59487;BME280;45298;54.918;73.504;2023-02-26T14:24:24;101756.63;;;-7.47;74.28
59487;BME280;45298;54.918;73.504;2023-02-26T14:30:15;101744.31;;;-7.54;75.13
59487;BME280;45298;54.918;73.504;2023-02-26T14:35:30;101737.22;;;-7.60;74.28
59487;BME280;45298;54.918;73.504;2023-02-26T14:40:38;101744.56;;;-7.69;74.41
59487;BME280;45298;54.918;73.504;2023-02-26T14:43:18;101723.22;;;-7.87;74.88
59487;BME280;45298;54.918;73.504;2023-02-26T14:45:49;101720.50;;;-7.91;74.72
59487;BME280;45298;54.918;73.504;2023-02-26T14:48:21;101749.34;;;-7.78;75.48
59487;BME280;45298;54.918;73.504;2023-02-26T15:11:05;101712.41;;;-8.21;75.52
59487;BME280;45298;54.918;73.504;2023-02-26T15:14:21;101744.63;;;-8.10;76.04
59487;BME280;45298;54.918;73.504;2023-02-26T15:21:03;101749.59;;;-8.14;77.23
59487;BME280;45298;54.918;73.504;2023-02-26T15:25:53;101725.09;;;-8.26;77.05
59487;BME280;45298;54.918;73.504;2023-02-26T15:28:35;101725.09;;;-8.26;76.29
59487;BME280;45298;54.918;73.504;2023-02-26T15:31:08;101772.06;;;-8.10;76.23
59487;BME280;45298;54.918;73.504;2023-02-26T15:33:40;101739.16;;;-8.17;76.98
59487;BME280;45298;54.918;73.504;2023-02-26T15:36:15;101731.22;;;-8.22;76.77
59487;BME280;45298;54.918;73.504;2023-02-26T15:38:48;101730.56;;;-8.18;77.59
59487;BME280;45298;54.918;73.504;2023-02-26T15:41:19;101761.09;;;-8.06;76.84
59487;BME280;45298;54.918;73.504;2023-02-26T15:43:55;101742.94;;;-8.09;77.07
59487;BME280;45298;54.918;73.504;2023-02-26T15:46:29;101724.41;;;-8.22;77.07
59487;BME280;45298;54.918;73.504;2023-02-26T15:49:04;101740.81;;;-8.20;76.86
59487;BME280;45298;54.918;73.504;2023-02-26T15:51:35;101747.09;;;-8.13;77.16
59487;BME280;45298;54.918;73.504;2023-02-26T15:54:05;101739.84;;;-8.22;76.91
59487;BME280;45298;54.918;73.504;2023-02-26T15:56:36;101744.31;;;-8.17;76.76
59487;BME280;45298;54.918;73.504;2023-02-26T16:01:40;101665.66;;;-8.73;77.16
59487;BME280;45298;54.918;73.504;2023-02-26T16:04:16;101731.72;;;-8.31;77.26
59487;BME280;45298;54.918;73.504;2023-02-26T16:06:48;101758.81;;;-8.20;77.59
59487;BME280;45298;54.918;73.504;2023-02-26T16:09:44;101766.53;;;-8.20;77.42